sensor_id;sensor_type;location;lat;lon;timestamp;pressure;altitude;pressure_sealevel;temperature;humidity
70256;BME280;57669;52.624;-1.688;2023-02-26T00:01:36;101894.57;;;2.50;52.37
70256;BME280;57669;52.624;-1.688;2023-02-26T00:04:03;101892.88;;;2.10;52.73
70256;BME280;57669;52.624;-1.688;2023-02-26T00:06:27;101899.11;;;2.70;52.12
70256;BME280;57669;52.624;-1.688;2023-02-26T00:08:52;101897.37;;;2.89;52.28
70256;BME280;57669;52.624;-1.688;2023-02-26T00:11:17;101897.28;;;2.56;53.01
70256;BME280;57669;52.624;-1.688;2023-02-26T00:13:43;101899.16;;;2.00;53.23
70256;BME280;57669;52.624;-1.688;2023-02-26T00:16:17;101893.68;;;2.64;51.96
70256;BME280;57669;52.624;-1.688;2023-02-26T00:18:32;101905.71;;;2.15;52.69
70256;BME280;57669;52.624;-1.688;2023-02-26T00:20:58;101900.57;;;3.06;51.18
70256;BME280;57669;52.624;-1.688;2023-02-26T00:23:23;101901.12;;;3.10;51.16
70256;BME280;57669;52.624;-1.688;2023-02-26T00:25:48;101904.70;;;2.83;51.58
70256;BME280;57669;52.624;-1.688;2023-02-26T00:28:13;101910.00;;;2.72;52.47
70256;BME280;57669;52.624;-1.688;2023-02-26T00:30:39;101904.16;;;2.94;52.00
70256;BME280;57669;52.624;-1.688;2023-02-26T00:33:04;101911.94;;;2.28;52.71
70256;BME280;57669;52.624;-1.688;2023-02-26T00:35:29;101905.23;;;2.94;52.15
70256;BME280;57669;52.624;-1.688;2023-02-26T00:37:58;101907.16;;;2.76;52.92
70256;BME280;57669;52.624;-1.688;2023-02-26T00:40:23;101912.62;;;2.22;53.65
70256;BME280;57669;52.624;-1.688;2023-02-26T00:42:44;101910.37;;;2.59;52.99
70256;BME280;57669;52.624;-1.688;2023-02-26T00:45:11;101911.51;;;2.43;52.52
70256;BME280;57669;52.624;-1.688;2023-02-26T00:47:41;101906.38;;;2.23;52.90
70256;BME280;57669;52.624;-1.688;2023-02-26T00:50:09;101905.33;;;2.92;51.55
70256;BME280;57669;52.624;-1.688;2023-02-26T00:52:29;101903.59;;;2.50;52.19
70256;BME280;57669;52.624;-1.688;2023-02-26T00:54:49;101904.23;;;2.64;52.28
70256;BME280;57669;52.624;-1.688;2023-02-26T00:57:15;101906.54;;;2.48;51.78
70256;BME280;57669;52.624;-1.688;2023-02-26T00:59:40;101906.86;;;2.33;52.33
70256;BME280;57669;52.624;-1.688;2023-02-26T01:02:05;101909.39;;;2.34;52.17
70256;BME280;57669;52.624;-1.688;2023-02-26T01:04:31;101918.37;;;2.36;51.94
70256;BME280;57669;52.624;-1.688;2023-02-26T01:06:56;101921.38;;;2.54;51.54
70256;BME280;57669;52.624;-1.688;2023-02-26T01:09:25;101924.35;;;2.26;52.04
70256;BME280;57669;52.624;-1.688;2023-02-26T01:11:47;101922.42;;;2.66;51.91
70256;BME280;57669;52.624;-1.688;2023-02-26T01:14:13;101923.10;;;2.21;52.48
70256;BME280;57669;52.624;-1.688;2023-02-26T01:16:46;101920.48;;;2.14;52.01
70256;BME280;57669;52.624;-1.688;2023-02-26T01:19:08;101924.52;;;2.33;51.63
70256;BME280;57669;52.624;-1.688;2023-02-26T01:21:33;101925.50;;;2.36;51.52
70256;BME280;57669;52.624;-1.688;2023-02-26T01:23:53;101927.97;;;2.67;50.64
70256;BME280;57669;52.624;-1.688;2023-02-26T01:26:21;101933.68;;;2.21;51.41
70256;BME280;57669;52.624;-1.688;2023-02-26T01:28:44;101934.03;;;2.52;50.83
70256;BME280;57669;52.624;-1.688;2023-02-26T01:31:15;101931.00;;;2.17;50.77
70256;BME280;57669;52.624;-1.688;2023-02-26T01:33:41;101931.47;;;3.35;49.88
70256;BME280;57669;52.624;-1.688;2023-02-26T01:36:02;101945.75;;;2.64;50.24
70256;BME280;57669;52.624;-1.688;2023-02-26T01:38:28;101944.98;;;3.01;49.10
70256;BME280;57669;52.624;-1.688;2023-02-26T01:41:02;101949.78;;;2.54;49.98
70256;BME280;57669;52.624;-1.688;2023-02-26T01:43:21;101955.33;;;2.74;49.74
70256;BME280;57669;52.624;-1.688;2023-02-26T01:45:51;101950.13;;;2.34;49.89
70256;BME280;57669;52.624;-1.688;2023-02-26T01:48:11;101953.18;;;3.10;49.23
70256;BME280;57669;52.624;-1.688;2023-02-26T01:50:34;101961.42;;;2.88;49.65
70256;BME280;57669;52.624;-1.688;2023-02-26T01:55:24;101958.10;;;3.25;49.15
70256;BME280;57669;52.624;-1.688;2023-02-26T01:57:47;101957.59;;;3.00;49.44
70256;BME280;57669;52.624;-1.688;2023-02-26T02:00:13;101950.39;;;3.51;48.94
70256;BME280;57669;52.624;-1.688;2023-02-26T02:02:37;101954.70;;;3.68;48.56
70256;BME280;57669;52.624;-1.688;2023-02-26T02:05:04;101955.67;;;3.52;48.77
70256;BME280;57669;52.624;-1.688;2023-02-26T02:07:28;101956.05;;;3.00;49.24
70256;BME280;57669;52.624;-1.688;2023-02-26T02:09:53;101962.30;;;3.02;49.47
70256;BME280;57669;52.624;-1.688;2023-02-26T02:12:25;101959.91;;;3.43;48.60
70256;BME280;57669;52.624;-1.688;2023-02-26T02:14:52;101968.57;;;3.32;48.86
70256;BME280;57669;52.624;-1.688;2023-02-26T02:17:13;101973.82;;;2.62;49.35
70256;BME280;57669;52.624;-1.688;2023-02-26T02:22:14;101976.83;;;2.47;50.23
70256;BME280;57669;52.624;-1.688;2023-02-26T02:24:32;101979.03;;;2.92;49.36
70256;BME280;57669;52.624;-1.688;2023-02-26T02:29:24;101974.78;;;2.10;50.75
70256;BME280;57669;52.624;-1.688;2023-02-26T02:31:43;101977.19;;;2.19;50.40
70256;BME280;57669;52.624;-1.688;2023-02-26T02:34:11;101975.67;;;1.96;51.13
70256;BME280;57669;52.624;-1.688;2023-02-26T02:36:33;101974.26;;;2.01;51.06
70256;BME280;57669;52.624;-1.688;2023-02-26T02:38:57;101981.08;;;2.72;49.50
70256;BME280;57669;52.624;-1.688;2023-02-26T02:41:26;101977.11;;;2.36;50.29
70256;BME280;57669;52.624;-1.688;2023-02-26T02:43:47;101971.04;;;2.30;49.73
70256;BME280;57669;52.624;-1.688;2023-02-26T02:46:14;101969.22;;;2.67;48.92
70256;BME280;57669;52.624;-1.688;2023-02-26T02:48:40;101968.63;;;2.79;48.82
70256;BME280;57669;52.624;-1.688;2023-02-26T02:51:05;101967.83;;;2.76;48.87
70256;BME280;57669;52.624;-1.688;2023-02-26T02:53:33;101971.83;;;2.58;48.98
70256;BME280;57669;52.624;-1.688;2023-02-26T02:55:55;101982.83;;;2.37;49.36
70256;BME280;57669;52.624;-1.688;2023-02-26T02:58:21;101979.14;;;2.24;49.57
70256;BME280;57669;52.624;-1.688;2023-02-26T03:00:46;101973.33;;;2.46;49.71
70256;BME280;57669;52.624;-1.688;2023-02-26T03:03:12;101982.69;;;2.11;50.40
70256;BME280;57669;52.624;-1.688;2023-02-26T03:05:33;101987.05;;;2.42;49.98
70256;BME280;57669;52.624;-1.688;2023-02-26T03:08:03;101983.78;;;2.59;49.34
70256;BME280;57669;52.624;-1.688;2023-02-26T03:10:23;101986.00;;;2.88;49.38
70256;BME280;57669;52.624;-1.688;2023-02-26T03:12:49;101983.28;;;2.88;48.86
70256;BME280;57669;52.624;-1.688;2023-02-26T03:15:14;101982.57;;;3.30;48.21
70256;BME280;57669;52.624;-1.688;2023-02-26T03:17:47;101981.81;;;3.08;48.42
70256;BME280;57669;52.624;-1.688;2023-02-26T03:20:16;101979.18;;;3.08;48.31
70256;BME280;57669;52.624;-1.688;2023-02-26T03:22:36;101979.55;;;2.70;48.58
70256;BME280;57669;52.624;-1.688;2023-02-26T03:24:58;101986.20;;;2.75;48.98
70256;BME280;57669;52.624;-1.688;2023-02-26T03:27:24;101981.20;;;3.00;48.40
70256;BME280;57669;52.624;-1.688;2023-02-26T03:29:49;101981.68;;;3.09;48.52
70256;BME280;57669;52.624;-1.688;2023-02-26T03:32:13;101982.56;;;3.06;48.54
70256;BME280;57669;52.624;-1.688;2023-02-26T03:34:39;101990.93;;;2.74;49.18
70256;BME280;57669;52.624;-1.688;2023-02-26T03:37:05;101983.22;;;2.81;48.84
70256;BME280;57669;52.624;-1.688;2023-02-26T03:39:28;101984.36;;;3.08;48.48
70256;BME280;57669;52.624;-1.688;2023-02-26T03:41:54;101989.08;;;3.18;48.62
70256;BME280;57669;52.624;-1.688;2023-02-26T03:44:20;101992.27;;;2.94;48.95
70256;BME280;57669;52.624;-1.688;2023-02-26T03:46:44;101990.30;;;2.81;48.80
70256;BME280;57669;52.624;-1.688;2023-02-26T03:49:10;101999.49;;;2.71;49.41
70256;BME280;57669;52.624;-1.688;2023-02-26T03:51:32;102000.97;;;2.68;49.40
70256;BME280;57669;52.624;-1.688;2023-02-26T03:54:00;102000.97;;;3.14;49.09
70256;BME280;57669;52.624;-1.688;2023-02-26T03:56:26;101998.36;;;3.07;48.66
70256;BME280;57669;52.624;-1.688;2023-02-26T03:58:46;102008.75;;;2.53;49.27
70256;BME280;57669;52.624;-1.688;2023-02-26T04:01:20;102012.58;;;2.61;49.58
70256;BME280;57669;52.624;-1.688;2023-02-26T04:03:41;102011.20;;;3.35;48.62
70256;BME280;57669;52.624;-1.688;2023-02-26T04:06:03;102003.44;;;2.83;48.75
70256;BME280;57669;52.624;-1.688;2023-02-26T04:08:28;102015.28;;;3.27;48.53
70256;BME280;57669;52.624;-1.688;2023-02-26T04:10:55;102014.78;;;2.39;49.67
70256;BME280;57669;52.624;-1.688;2023-02-26T04:13:17;102015.22;;;2.34;49.30
70256;BME280;57669;52.624;-1.688;2023-02-26T04:15:43;102014.77;;;2.49;49.85
70256;BME280;57669;52.624;-1.688;2023-02-26T04:18:08;102016.29;;;2.34;49.67
70256;BME280;57669;52.624;-1.688;2023-02-26T04:20:33;102020.75;;;2.20;50.40
70256;BME280;57669;52.624;-1.688;2023-02-26T04:22:58;102032.10;;;2.04;50.80
70256;BME280;57669;52.624;-1.688;2023-02-26T04:25:25;102041.99;;;2.25;50.37
70256;BME280;57669;52.624;-1.688;2023-02-26T04:27:48;102037.82;;;2.08;50.75
70256;BME280;57669;52.624;-1.688;2023-02-26T04:30:14;102043.46;;;2.45;50.11
70256;BME280;57669;52.624;-1.688;2023-02-26T04:32:39;102042.54;;;2.27;50.24
70256;BME280;57669;52.624;-1.688;2023-02-26T04:35:04;102044.96;;;2.52;49.76
70256;BME280;57669;52.624;-1.688;2023-02-26T04:37:29;102044.64;;;2.31;50.37
70256;BME280;57669;52.624;-1.688;2023-02-26T04:39:54;102043.12;;;2.28;50.61
70256;BME280;57669;52.624;-1.688;2023-02-26T04:42:20;102038.58;;;2.02;50.88
70256;BME280;57669;52.624;-1.688;2023-02-26T04:44:45;102045.66;;;2.67;49.44
70256;BME280;57669;52.624;-1.688;2023-02-26T04:47:10;102049.12;;;2.22;50.20
70256;BME280;57669;52.624;-1.688;2023-02-26T04:49:35;102051.33;;;1.95;50.58
70256;BME280;57669;52.624;-1.688;2023-02-26T04:52:01;102052.11;;;1.61;51.34
70256;BME280;57669;52.624;-1.688;2023-02-26T04:54:26;102056.30;;;2.31;49.92
70256;BME280;57669;52.624;-1.688;2023-02-26T04:56:51;102053.79;;;2.32;50.30
70256;BME280;57669;52.624;-1.688;2023-02-26T04:59:16;102052.42;;;1.83;51.22
70256;BME280;57669;52.624;-1.688;2023-02-26T05:01:42;102057.60;;;2.17;50.56
70256;BME280;57669;52.624;-1.688;2023-02-26T05:04:07;102066.89;;;2.26;49.90
70256;BME280;57669;52.624;-1.688;2023-02-26T05:06:33;102068.15;;;2.55;49.36
70256;BME280;57669;52.624;-1.688;2023-02-26T05:08:58;102069.35;;;2.93;48.45
70256;BME280;57669;52.624;-1.688;2023-02-26T05:11:24;102067.66;;;2.68;48.84
70256;BME280;57669;52.624;-1.688;2023-02-26T05:13:49;102071.00;;;2.43;49.31
70256;BME280;57669;52.624;-1.688;2023-02-26T05:16:29;102069.83;;;2.35;49.38
70256;BME280;57669;52.624;-1.688;2023-02-26T05:18:40;102070.65;;;2.29;49.23
70256;BME280;57669;52.624;-1.688;2023-02-26T05:21:05;102072.98;;;1.81;50.65
70256;BME280;57669;52.624;-1.688;2023-02-26T05:23:30;102072.98;;;1.69;51.04
70256;BME280;57669;52.624;-1.688;2023-02-26T05:25:56;102071.45;;;1.81;52.08
70256;BME280;57669;52.624;-1.688;2023-02-26T05:28:20;102073.13;;;1.40;51.89
70256;BME280;57669;52.624;-1.688;2023-02-26T05:30:45;102076.00;;;1.90;51.12
70256;BME280;57669;52.624;-1.688;2023-02-26T05:33:10;102081.79;;;1.53;51.89
70256;BME280;57669;52.624;-1.688;2023-02-26T05:35:36;102082.21;;;2.19;51.23
70256;BME280;57669;52.624;-1.688;2023-02-26T05:38:01;102082.39;;;2.31;50.83
70256;BME280;57669;52.624;-1.688;2023-02-26T05:40:27;102084.20;;;1.63;53.78
70256;BME280;57669;52.624;-1.688;2023-02-26T05:42:52;102078.89;;;1.69;54.10
70256;BME280;57669;52.624;-1.688;2023-02-26T05:45:18;102078.87;;;1.61;54.10
70256;BME280;57669;52.624;-1.688;2023-02-26T05:47:43;102082.80;;;1.66;53.44
70256;BME280;57669;52.624;-1.688;2023-02-26T05:50:09;102089.70;;;1.64;54.74
70256;BME280;57669;52.624;-1.688;2023-02-26T05:52:33;102092.61;;;1.87;54.22
70256;BME280;57669;52.624;-1.688;2023-02-26T05:54:58;102098.61;;;2.04;53.56
70256;BME280;57669;52.624;-1.688;2023-02-26T05:57:23;102103.92;;;1.92;54.11
70256;BME280;57669;52.624;-1.688;2023-02-26T05:59:48;102105.22;;;1.61;54.51
70256;BME280;57669;52.624;-1.688;2023-02-26T06:02:13;102101.78;;;2.13;52.98
70256;BME280;57669;52.624;-1.688;2023-02-26T06:04:39;102101.80;;;2.08;53.07
70256;BME280;57669;52.624;-1.688;2023-02-26T06:07:04;102108.10;;;1.19;54.34
70256;BME280;57669;52.624;-1.688;2023-02-26T06:09:30;102109.91;;;1.96;54.11
70256;BME280;57669;52.624;-1.688;2023-02-26T06:11:55;102111.15;;;1.10;54.65
70256;BME280;57669;52.624;-1.688;2023-02-26T06:14:21;102111.55;;;1.56;53.98
70256;BME280;57669;52.624;-1.688;2023-02-26T06:16:46;102110.49;;;1.84;54.37
70256;BME280;57669;52.624;-1.688;2023-02-26T06:21:37;102122.65;;;1.73;54.11
70256;BME280;57669;52.624;-1.688;2023-02-26T06:24:02;102121.55;;;1.73;54.34
70256;BME280;57669;52.624;-1.688;2023-02-26T06:26:27;102127.10;;;1.37;55.35
70256;BME280;57669;52.624;-1.688;2023-02-26T06:28:52;102125.69;;;1.49;54.60
70256;BME280;57669;52.624;-1.688;2023-02-26T06:31:17;102128.71;;;1.56;54.28
70256;BME280;57669;52.624;-1.688;2023-02-26T06:33:43;102127.27;;;1.57;53.46
70256;BME280;57669;52.624;-1.688;2023-02-26T06:36:08;102139.08;;;2.03;52.50
70256;BME280;57669;52.624;-1.688;2023-02-26T06:38:33;102144.26;;;1.46;54.62
70256;BME280;57669;52.624;-1.688;2023-02-26T06:40:59;102148.76;;;0.92;56.15
70256;BME280;57669;52.624;-1.688;2023-02-26T06:45:49;102152.57;;;1.21;54.26
70256;BME280;57669;52.624;-1.688;2023-02-26T06:48:14;102149.16;;;1.62;54.63
70256;BME280;57669;52.624;-1.688;2023-02-26T06:50:39;102156.93;;;1.46;55.08
70256;BME280;57669;52.624;-1.688;2023-02-26T06:53:04;102163.50;;;1.28;56.10
70256;BME280;57669;52.624;-1.688;2023-02-26T06:55:30;102166.99;;;1.59;55.46
70256;BME280;57669;52.624;-1.688;2023-02-26T06:57:56;102168.14;;;0.76;56.38
70256;BME280;57669;52.624;-1.688;2023-02-26T07:00:21;102171.38;;;1.06;55.91
70256;BME280;57669;52.624;-1.688;2023-02-26T07:02:45;102173.38;;;1.29;55.62
70256;BME280;57669;52.624;-1.688;2023-02-26T07:05:10;102171.84;;;1.63;55.18
70256;BME280;57669;52.624;-1.688;2023-02-26T07:07:35;102174.42;;;0.98;55.90
70256;BME280;57669;52.624;-1.688;2023-02-26T07:10:01;102176.98;;;1.33;55.94
70256;BME280;57669;52.624;-1.688;2023-02-26T07:12:26;102174.73;;;1.44;55.14
70256;BME280;57669;52.624;-1.688;2023-02-26T07:14:51;102171.51;;;1.07;55.26
70256;BME280;57669;52.624;-1.688;2023-02-26T07:17:16;102176.39;;;1.84;53.69
70256;BME280;57669;52.624;-1.688;2023-02-26T07:19:41;102178.93;;;1.47;54.22
70256;BME280;57669;52.624;-1.688;2023-02-26T07:22:07;102182.49;;;1.38;54.83
70256;BME280;57669;52.624;-1.688;2023-02-26T07:24:32;102185.33;;;1.91;53.68
70256;BME280;57669;52.624;-1.688;2023-02-26T07:26:57;102193.31;;;1.74;54.17
70256;BME280;57669;52.624;-1.688;2023-02-26T07:29:23;102191.65;;;1.89;54.50
70256;BME280;57669;52.624;-1.688;2023-02-26T07:31:48;102198.59;;;1.86;53.94
70256;BME280;57669;52.624;-1.688;2023-02-26T07:34:13;102198.75;;;1.95;53.65
70256;BME280;57669;52.624;-1.688;2023-02-26T07:36:39;102196.83;;;1.68;54.64
70256;BME280;57669;52.624;-1.688;2023-02-26T07:39:04;102198.13;;;1.47;55.11
70256;BME280;57669;52.624;-1.688;2023-02-26T07:41:29;102198.14;;;1.39;56.27
70256;BME280;57669;52.624;-1.688;2023-02-26T07:43:54;102205.98;;;1.52;55.09
70256;BME280;57669;52.624;-1.688;2023-02-26T07:46:19;102212.23;;;1.39;55.54
70256;BME280;57669;52.624;-1.688;2023-02-26T07:48:45;102217.56;;;1.51;55.82
70256;BME280;57669;52.624;-1.688;2023-02-26T07:51:10;102213.75;;;1.20;56.01
70256;BME280;57669;52.624;-1.688;2023-02-26T07:53:36;102222.17;;;1.26;56.05
70256;BME280;57669;52.624;-1.688;2023-02-26T07:56:00;102222.21;;;0.94;57.19
70256;BME280;57669;52.624;-1.688;2023-02-26T08:00:51;102226.84;;;1.37;56.05
70256;BME280;57669;52.624;-1.688;2023-02-26T08:03:16;102227.19;;;1.54;56.23
70256;BME280;57669;52.624;-1.688;2023-02-26T08:05:42;102227.15;;;1.17;56.62
70256;BME280;57669;52.624;-1.688;2023-02-26T08:08:07;102231.09;;;1.35;56.49
70256;BME280;57669;52.624;-1.688;2023-02-26T08:10:32;102233.25;;;1.39;56.60
70256;BME280;57669;52.624;-1.688;2023-02-26T08:12:57;102231.93;;;1.58;56.18
70256;BME280;57669;52.624;-1.688;2023-02-26T08:15:22;102235.48;;;1.37;56.53
70256;BME280;57669;52.624;-1.688;2023-02-26T08:17:47;102239.22;;;1.43;56.21
70256;BME280;57669;52.624;-1.688;2023-02-26T08:20:13;102243.03;;;1.53;56.54
70256;BME280;57669;52.624;-1.688;2023-02-26T08:22:38;102255.14;;;1.85;56.41
70256;BME280;57669;52.624;-1.688;2023-02-26T08:25:03;102257.28;;;2.04;57.36
70256;BME280;57669;52.624;-1.688;2023-02-26T08:27:28;102258.25;;;1.38;58.09
70256;BME280;57669;52.624;-1.688;2023-02-26T08:29:54;102268.69;;;1.29;57.33
70256;BME280;57669;52.624;-1.688;2023-02-26T08:32:19;102269.78;;;1.27;57.69
70256;BME280;57669;52.624;-1.688;2023-02-26T08:34:45;102278.86;;;1.86;56.31
70256;BME280;57669;52.624;-1.688;2023-02-26T08:37:09;102281.88;;;2.22;56.72
70256;BME280;57669;52.624;-1.688;2023-02-26T08:39:35;102281.12;;;1.84;56.70
70256;BME280;57669;52.624;-1.688;2023-02-26T08:42:00;102283.17;;;1.97;56.84
70256;BME280;57669;52.624;-1.688;2023-02-26T08:44:25;102286.83;;;1.91;56.63
70256;BME280;57669;52.624;-1.688;2023-02-26T08:46:50;102287.48;;;2.50;55.76
70256;BME280;57669;52.624;-1.688;2023-02-26T08:49:16;102278.50;;;2.72;55.00
70256;BME280;57669;52.624;-1.688;2023-02-26T08:51:41;102282.42;;;3.17;54.98
70256;BME280;57669;52.624;-1.688;2023-02-26T08:54:07;102283.34;;;2.88;55.00
70256;BME280;57669;52.624;-1.688;2023-02-26T08:56:32;102284.77;;;2.61;55.27
70256;BME280;57669;52.624;-1.688;2023-02-26T08:58:57;102289.24;;;2.63;55.20
70256;BME280;57669;52.624;-1.688;2023-02-26T09:01:22;102289.46;;;2.53;54.81
70256;BME280;57669;52.624;-1.688;2023-02-26T09:06:13;102294.38;;;2.77;54.40
70256;BME280;57669;52.624;-1.688;2023-02-26T09:08:38;102296.83;;;2.64;54.43
70256;BME280;57669;52.624;-1.688;2023-02-26T09:11:03;102303.80;;;1.80;56.74
70256;BME280;57669;52.624;-1.688;2023-02-26T09:13:29;102308.01;;;2.13;57.35
70256;BME280;57669;52.624;-1.688;2023-02-26T09:15:53;102309.02;;;2.81;56.08
70256;BME280;57669;52.624;-1.688;2023-02-26T09:18:18;102312.84;;;2.83;56.41
70256;BME280;57669;52.624;-1.688;2023-02-26T09:20:44;102319.65;;;2.31;57.00
70256;BME280;57669;52.624;-1.688;2023-02-26T09:23:10;102319.06;;;2.30;56.94
70256;BME280;57669;52.624;-1.688;2023-02-26T09:25:44;102322.03;;;2.51;56.69
70256;BME280;57669;52.624;-1.688;2023-02-26T09:28:00;102321.36;;;2.44;58.12
70256;BME280;57669;52.624;-1.688;2023-02-26T09:30:25;102322.82;;;2.69;56.75
70256;BME280;57669;52.624;-1.688;2023-02-26T09:32:50;102329.89;;;2.63;55.28
70256;BME280;57669;52.624;-1.688;2023-02-26T09:35:15;102331.00;;;2.63;55.64
70256;BME280;57669;52.624;-1.688;2023-02-26T09:37:40;102334.80;;;2.98;55.34
70256;BME280;57669;52.624;-1.688;2023-02-26T09:40:19;102340.36;;;2.83;54.68
70256;BME280;57669;52.624;-1.688;2023-02-26T09:42:43;102341.16;;;2.94;54.44
70256;BME280;57669;52.624;-1.688;2023-02-26T09:44:57;102342.36;;;2.84;53.89
70256;BME280;57669;52.624;-1.688;2023-02-26T09:47:32;102347.18;;;2.93;53.81
70256;BME280;57669;52.624;-1.688;2023-02-26T09:49:56;102347.95;;;2.53;54.81
70256;BME280;57669;52.624;-1.688;2023-02-26T09:54:42;102348.11;;;2.83;55.23
70256;BME280;57669;52.624;-1.688;2023-02-26T09:57:03;102352.56;;;3.44;53.90
70256;BME280;57669;52.624;-1.688;2023-02-26T09:59:31;102356.33;;;3.40;54.47
70256;BME280;57669;52.624;-1.688;2023-02-26T10:01:57;102355.80;;;3.18;54.59
70256;BME280;57669;52.624;-1.688;2023-02-26T10:04:25;102361.34;;;3.48;52.68
70256;BME280;57669;52.624;-1.688;2023-02-26T10:06:53;102364.54;;;3.46;52.55
70256;BME280;57669;52.624;-1.688;2023-02-26T10:09:19;102367.54;;;2.79;53.71
70256;BME280;57669;52.624;-1.688;2023-02-26T10:11:39;102367.51;;;2.73;53.89
70256;BME280;57669;52.624;-1.688;2023-02-26T10:14:02;102368.60;;;2.16;55.80
70256;BME280;57669;52.624;-1.688;2023-02-26T10:16:26;102370.36;;;2.81;54.03
70256;BME280;57669;52.624;-1.688;2023-02-26T10:18:51;102370.98;;;2.99;53.14
70256;BME280;57669;52.624;-1.688;2023-02-26T10:21:19;102374.32;;;2.88;53.01
70256;BME280;57669;52.624;-1.688;2023-02-26T10:23:42;102373.45;;;2.84;53.25
70256;BME280;57669;52.624;-1.688;2023-02-26T10:26:11;102380.39;;;2.53;53.25
70256;BME280;57669;52.624;-1.688;2023-02-26T10:28:38;102375.89;;;3.68;52.01
70256;BME280;57669;52.624;-1.688;2023-02-26T10:31:01;102371.86;;;3.48;51.66
70256;BME280;57669;52.624;-1.688;2023-02-26T10:33:26;102382.59;;;3.53;50.79
70256;BME280;57669;52.624;-1.688;2023-02-26T10:35:50;102390.70;;;4.32;50.70
70256;BME280;57669;52.624;-1.688;2023-02-26T10:38:14;102391.50;;;3.89;50.34
70256;BME280;57669;52.624;-1.688;2023-02-26T10:40:38;102388.88;;;3.95;50.73
70256;BME280;57669;52.624;-1.688;2023-02-26T10:43:05;102390.98;;;3.78;50.56
70256;BME280;57669;52.624;-1.688;2023-02-26T10:45:34;102384.93;;;3.81;50.48
70256;BME280;57669;52.624;-1.688;2023-02-26T10:47:59;102385.05;;;3.92;50.42
70256;BME280;57669;52.624;-1.688;2023-02-26T10:50:19;102380.73;;;4.57;49.22
70256;BME280;57669;52.624;-1.688;2023-02-26T10:52:43;102386.09;;;4.15;49.66
70256;BME280;57669;52.624;-1.688;2023-02-26T10:55:23;102394.78;;;3.80;49.69
70256;BME280;57669;52.624;-1.688;2023-02-26T10:57:35;102394.47;;;4.16;48.74
70256;BME280;57669;52.624;-1.688;2023-02-26T10:59:58;102397.51;;;4.29;47.49
70256;BME280;57669;52.624;-1.688;2023-02-26T11:02:33;102392.25;;;4.42;47.33
70256;BME280;57669;52.624;-1.688;2023-02-26T11:04:50;102393.66;;;3.81;46.52
70256;BME280;57669;52.624;-1.688;2023-02-26T11:07:15;102398.96;;;3.97;46.20
70256;BME280;57669;52.624;-1.688;2023-02-26T11:09:44;102400.05;;;4.06;47.16
70256;BME280;57669;52.624;-1.688;2023-02-26T11:12:12;102405.69;;;4.05;48.41
70256;BME280;57669;52.624;-1.688;2023-02-26T11:14:33;102412.81;;;4.22;46.73
70256;BME280;57669;52.624;-1.688;2023-02-26T11:19:27;102409.59;;;4.09;46.16
70256;BME280;57669;52.624;-1.688;2023-02-26T11:21:49;102414.23;;;4.36;46.24
70256;BME280;57669;52.624;-1.688;2023-02-26T11:24:19;102413.42;;;4.88;45.50
70256;BME280;57669;52.624;-1.688;2023-02-26T11:26:48;102412.37;;;4.91;45.44
70256;BME280;57669;52.624;-1.688;2023-02-26T11:29:05;102424.71;;;4.70;44.92
70256;BME280;57669;52.624;-1.688;2023-02-26T11:31:31;102418.28;;;4.83;43.80
70256;BME280;57669;52.624;-1.688;2023-02-26T11:33:59;102426.36;;;4.40;43.38
70256;BME280;57669;52.624;-1.688;2023-02-26T11:36:24;102419.65;;;4.58;43.23
70256;BME280;57669;52.624;-1.688;2023-02-26T11:38:54;102425.23;;;4.52;42.64
70256;BME280;57669;52.624;-1.688;2023-02-26T11:41:12;102428.91;;;4.36;43.45
70256;BME280;57669;52.624;-1.688;2023-02-26T11:43:41;102422.51;;;4.80;42.17
70256;BME280;57669;52.624;-1.688;2023-02-26T11:46:04;102424.93;;;5.12;41.43
70256;BME280;57669;52.624;-1.688;2023-02-26T11:48:37;102415.75;;;5.55;39.48
70256;BME280;57669;52.624;-1.688;2023-02-26T11:50:59;102426.82;;;4.83;40.46
70256;BME280;57669;52.624;-1.688;2023-02-26T11:53:24;102427.79;;;4.65;40.02
70256;BME280;57669;52.624;-1.688;2023-02-26T11:55:46;102429.12;;;4.92;40.18
70256;BME280;57669;52.624;-1.688;2023-02-26T11:58:16;102432.08;;;5.72;39.61
70256;BME280;57669;52.624;-1.688;2023-02-26T12:00:36;102439.81;;;6.17;39.86
70256;BME280;57669;52.624;-1.688;2023-02-26T12:03:03;102431.23;;;4.59;41.05
70256;BME280;57669;52.624;-1.688;2023-02-26T12:05:26;102436.65;;;4.27;42.21
70256;BME280;57669;52.624;-1.688;2023-02-26T12:07:52;102441.57;;;5.03;40.94
70256;BME280;57669;52.624;-1.688;2023-02-26T12:10:25;102438.02;;;5.06;40.94
70256;BME280;57669;52.624;-1.688;2023-02-26T12:12:55;102443.91;;;4.71;40.93
70256;BME280;57669;52.624;-1.688;2023-02-26T12:17:46;102439.10;;;6.42;38.97
70256;BME280;57669;52.624;-1.688;2023-02-26T12:20:09;102447.63;;;5.60;38.85
70256;BME280;57669;52.624;-1.688;2023-02-26T12:22:39;102446.57;;;6.48;38.04
70256;BME280;57669;52.624;-1.688;2023-02-26T12:25:00;102444.57;;;6.39;37.93
70256;BME280;57669;52.624;-1.688;2023-02-26T12:27:24;102448.72;;;5.71;37.93
70256;BME280;57669;52.624;-1.688;2023-02-26T12:29:52;102454.65;;;5.81;39.11
70256;BME280;57669;52.624;-1.688;2023-02-26T12:32:15;102442.69;;;5.97;38.56
70256;BME280;57669;52.624;-1.688;2023-02-26T12:34:47;102450.86;;;5.90;38.73
70256;BME280;57669;52.624;-1.688;2023-02-26T12:39:35;102453.70;;;4.48;40.53
70256;BME280;57669;52.624;-1.688;2023-02-26T12:41:58;102455.19;;;4.31;41.18
70256;BME280;57669;52.624;-1.688;2023-02-26T12:44:24;102458.39;;;4.95;40.76
70256;BME280;57669;52.624;-1.688;2023-02-26T12:46:49;102461.45;;;6.26;38.72
70256;BME280;57669;52.624;-1.688;2023-02-26T12:49:19;102453.24;;;6.06;37.67
70256;BME280;57669;52.624;-1.688;2023-02-26T12:51:44;102448.99;;;7.11;36.77
70256;BME280;57669;52.624;-1.688;2023-02-26T12:54:05;102447.49;;;7.53;35.03
70256;BME280;57669;52.624;-1.688;2023-02-26T12:56:35;102450.43;;;7.61;33.94
70256;BME280;57669;52.624;-1.688;2023-02-26T12:59:00;102448.33;;;7.16;33.88
70256;BME280;57669;52.624;-1.688;2023-02-26T13:01:26;102441.01;;;7.72;33.89
70256;BME280;57669;52.624;-1.688;2023-02-26T13:06:17;102448.90;;;8.26;31.79
70256;BME280;57669;52.624;-1.688;2023-02-26T13:08:36;102450.31;;;9.20;31.32